Terminal Aerodrome Forecast
Issued by NWS Bismarck, ND

Home | Current Version | Previous Version | Text Only | Print | Product List | Glossary On
Versions: 1 2 3 4 5 6 7 8 9 10 11 12 13 14 15 16 17 18 19 20 21
000
FTUS43 KBIS 301143
TAFBIS
TAF
KBIS 301143Z 3012/3112 25008KT P6SM SCT090
     FM301600 28012KT P6SM FEW080
     FM302000 31015G22KT P6SM FEW100
     FM310100 33010KT P6SM SKC
     FM310600 30005KT P6SM SKC=

USA.gov is the U.S. government's official web portal to all federal, state and local government web resources and services.